createdAt,value
2022-09-01T00:00:04.049Z,10.89
2022-09-01T00:02:36.987Z,10.72
2022-09-01T00:05:08.649Z,10.66
2022-09-01T00:07:37.676Z,10.65
2022-09-01T00:10:09.384Z,10.58
2022-09-01T00:12:39.647Z,10.52
2022-09-01T00:15:11.747Z,10.45
2022-09-01T00:17:40.931Z,10.46
2022-09-01T00:20:14.139Z,10.50
2022-09-01T00:22:46.283Z,10.48
2022-09-01T00:25:15.294Z,10.64
2022-09-01T00:27:44.300Z,10.49
2022-09-01T00:30:14.041Z,10.52
2022-09-01T00:32:46.806Z,10.73
2022-09-01T00:35:19.806Z,10.84
2022-09-01T00:37:48.870Z,10.81
2022-09-01T00:40:19.710Z,10.72
2022-09-01T00:42:49.376Z,10.69
2022-09-01T00:45:19.452Z,10.61
2022-09-01T00:47:51.172Z,10.74
2022-09-01T00:50:22.334Z,10.90
2022-09-01T00:52:54.348Z,10.88
2022-09-01T00:55:28.201Z,10.61
2022-09-01T00:57:58.124Z,10.39
2022-09-01T01:00:29.867Z,10.34
2022-09-01T01:02:59.502Z,10.26
2022-09-01T01:05:34.254Z,10.14
2022-09-01T01:08:04.719Z,10.08
2022-09-01T01:10:37.908Z,10.08
2022-09-01T01:13:10.609Z,9.96
2022-09-01T01:15:43.935Z,9.86
2022-09-01T01:18:13.517Z,9.81
2022-09-01T01:21:01.934Z,9.68
2022-09-01T01:23:40.318Z,9.58
2022-09-01T01:26:11.619Z,9.46
2022-09-01T01:28:44.497Z,9.45
2022-09-01T01:31:16.656Z,9.42
2022-09-01T01:33:48.083Z,9.56
2022-09-01T01:36:21.711Z,9.46
2022-09-01T01:38:52.658Z,9.43
2022-09-01T01:41:24.351Z,9.61
2022-09-01T01:43:53.355Z,9.48
2022-09-01T01:46:23.870Z,9.45
2022-09-01T01:48:54.098Z,9.56
2022-09-01T01:51:28.562Z,9.65
2022-09-01T01:53:59.730Z,9.63
2022-09-01T01:56:30.278Z,9.47
2022-09-01T01:58:59.350Z,9.27
2022-09-01T02:01:32.267Z,9.24
2022-09-01T02:04:04.357Z,9.33
2022-09-01T02:06:35.624Z,9.28
2022-09-01T02:09:05.475Z,9.25
2022-09-01T02:11:38.029Z,9.15
2022-09-01T02:14:10.441Z,9.24
2022-09-01T02:16:39.748Z,9.16
2022-09-01T02:19:10.764Z,9.22
2022-09-01T02:21:45.132Z,9.19
2022-09-01T02:24:14.218Z,9.05
2022-09-01T02:26:47.538Z,9.17
2022-09-01T02:29:22.369Z,9.13
2022-09-01T02:31:53.172Z,9.16
2022-09-01T02:34:24.323Z,9.20
2022-09-01T02:36:56.930Z,9.20
2022-09-01T02:39:29.476Z,9.34
2022-09-01T02:42:01.429Z,9.37
2022-09-01T02:44:32.274Z,9.26
2022-09-01T02:47:05.629Z,9.50
2022-09-01T02:49:36.258Z,9.74
2022-09-01T02:52:06.326Z,9.79
2022-09-01T02:54:36.402Z,9.86
2022-09-01T02:57:09.213Z,10.04
2022-09-01T02:59:43.136Z,9.86
2022-09-01T03:02:12.865Z,9.92
2022-09-01T03:04:42.008Z,9.79
2022-09-01T03:07:13.872Z,9.77
2022-09-01T03:09:43.894Z,9.72
2022-09-01T03:12:14.620Z,9.57
2022-09-01T03:14:43.671Z,9.43
2022-09-01T03:17:14.181Z,9.44
2022-09-01T03:19:44.646Z,9.50
2022-09-01T03:22:14.270Z,9.55
2022-09-01T03:24:44.057Z,9.68
2022-09-01T03:27:14.466Z,9.80
2022-09-01T03:29:43.748Z,9.80
2022-09-01T03:32:12.850Z,9.91
2022-09-01T03:34:42.035Z,9.96
2022-09-01T03:37:12.337Z,10.10
2022-09-01T03:39:41.483Z,10.05
2022-09-01T03:42:12.733Z,10.15
2022-09-01T03:44:44.608Z,10.13
2022-09-01T03:47:17.120Z,10.17
2022-09-01T03:49:49.311Z,10.16
2022-09-01T03:52:18.589Z,10.21
2022-09-01T03:54:48.154Z,10.32
2022-09-01T03:57:17.201Z,10.46
2022-09-01T03:59:47.758Z,10.65
2022-09-01T04:02:17.295Z,10.62
2022-09-01T04:04:46.286Z,10.57
2022-09-01T04:07:19.079Z,10.50
2022-09-01T04:09:48.653Z,10.41
2022-09-01T04:12:17.605Z,10.31
2022-09-01T04:14:53.832Z,10.19
2022-09-01T04:17:40.250Z,10.28
2022-09-01T04:20:10.424Z,10.32
2022-09-01T04:22:39.426Z,10.30
2022-09-01T04:25:11.452Z,10.44
2022-09-01T04:27:40.717Z,10.60
2022-09-01T04:30:13.805Z,10.67
2022-09-01T04:32:48.374Z,10.84
2022-09-01T04:35:18.762Z,10.75
2022-09-01T04:37:50.207Z,10.95
2022-09-01T04:40:19.276Z,11.09
2022-09-01T04:42:48.761Z,11.05
2022-09-01T04:45:22.482Z,11.00
2022-09-01T04:47:51.964Z,11.28
2022-09-01T04:50:22.270Z,10.84
2022-09-01T04:53:12.208Z,10.73
2022-09-01T04:55:49.794Z,11.07
2022-09-01T04:58:22.227Z,11.04
2022-09-01T05:00:57.109Z,10.91
2022-09-01T05:03:26.476Z,10.77
2022-09-01T05:06:06.714Z,10.74
2022-09-01T05:08:36.570Z,10.87
2022-09-01T05:11:11.562Z,10.84
2022-09-01T05:13:45.591Z,10.66
2022-09-01T05:16:25.031Z,10.76
2022-09-01T05:18:58.065Z,10.70
2022-09-01T05:21:34.073Z,10.79
2022-09-01T05:24:05.245Z,10.90
2022-09-01T05:26:35.263Z,11.01
2022-09-01T05:29:10.878Z,10.57
2022-09-01T05:31:44.292Z,10.41
2022-09-01T05:34:14.177Z,10.46
2022-09-01T05:36:50.868Z,10.79
2022-09-01T05:39:20.986Z,10.97
2022-09-01T05:41:50.535Z,11.07
2022-09-01T05:44:23.086Z,11.06
2022-09-01T05:46:56.225Z,11.21
2022-09-01T05:49:27.002Z,11.74
2022-09-01T05:51:59.120Z,12.04
2022-09-01T05:54:30.775Z,12.09
2022-09-01T05:57:17.494Z,11.97
2022-09-01T05:59:54.261Z,12.47
2022-09-01T06:02:28.898Z,12.19
2022-09-01T06:05:00.489Z,12.07
2022-09-01T06:07:38.185Z,12.13
2022-09-01T06:10:09.237Z,12.09
2022-09-01T06:12:40.742Z,12.18
2022-09-01T06:15:16.380Z,12.22
2022-09-01T06:17:52.723Z,12.01
2022-09-01T06:20:23.115Z,12.23
2022-09-01T06:22:53.646Z,12.30
2022-09-01T06:25:24.149Z,12.39
2022-09-01T06:27:54.237Z,12.58
2022-09-01T06:30:26.608Z,12.49
2022-09-01T06:33:09.509Z,12.26
2022-09-01T06:35:40.696Z,12.49
2022-09-01T06:38:12.028Z,12.55
2022-09-01T06:40:45.342Z,12.55
2022-09-01T06:43:17.486Z,12.44
2022-09-01T06:45:55.074Z,12.04
2022-09-01T06:48:30.991Z,12.22
2022-09-01T06:51:22.020Z,12.66
2022-09-01T06:53:59.486Z,12.72
2022-09-01T06:56:42.860Z,13.09
2022-09-01T06:59:15.753Z,13.07
2022-09-01T07:01:52.540Z,13.21
2022-09-01T07:04:31.524Z,13.22
2022-09-01T07:13:12.165Z,13.46
2022-09-01T07:18:37.264Z,12.98
2022-09-01T07:21:36.276Z,12.84
2022-09-01T07:24:11.101Z,12.76
2022-09-01T07:26:49.703Z,12.75
2022-09-01T07:29:22.958Z,12.60
2022-09-01T07:34:47.935Z,12.99
2022-09-01T07:43:17.936Z,12.48
2022-09-01T07:49:03.301Z,12.96
2022-09-01T07:51:55.713Z,12.79
2022-09-01T07:54:26.566Z,13.00
2022-09-01T07:56:55.877Z,12.90
2022-09-01T07:59:28.567Z,12.64
2022-09-01T08:02:06.792Z,12.84
2022-09-01T08:04:36.340Z,13.34
2022-09-01T08:07:06.794Z,13.70
2022-09-01T08:09:44.276Z,13.77
2022-09-01T08:12:15.005Z,13.32
2022-09-01T08:17:52.040Z,13.23
2022-09-01T08:20:24.387Z,13.38
2022-09-01T08:23:26.554Z,13.69
2022-09-01T08:25:57.083Z,13.92
2022-09-01T08:28:27.110Z,14.25
2022-09-01T08:31:00.206Z,14.52
2022-09-01T08:33:31.286Z,14.35
2022-09-01T08:36:00.292Z,14.01
2022-09-01T08:38:29.390Z,14.04
2022-09-01T08:41:01.269Z,14.02
2022-09-01T08:43:49.399Z,13.75
2022-09-01T08:46:25.416Z,13.63
2022-09-01T08:49:24.398Z,13.23
2022-09-01T08:52:15.251Z,13.03
2022-09-01T08:54:49.506Z,13.02
2022-09-01T08:57:24.887Z,12.86
2022-09-01T09:00:17.764Z,12.80
2022-09-01T09:03:00.375Z,12.78
2022-09-01T09:05:36.979Z,12.48
2022-09-01T09:08:33.314Z,12.53
2022-09-01T09:11:06.626Z,12.89
2022-09-01T09:13:47.660Z,12.92
2022-09-01T09:16:22.814Z,12.68
2022-09-01T09:18:55.998Z,12.49
2022-09-01T09:21:30.464Z,12.58
2022-09-01T09:24:08.334Z,12.61
2022-09-01T09:26:44.805Z,12.50
2022-09-01T09:29:15.385Z,12.30
2022-09-01T09:31:50.359Z,12.30
2022-09-01T09:34:32.814Z,12.47
2022-09-01T09:37:23.302Z,12.43
2022-09-01T09:40:10.017Z,12.29
2022-09-01T09:42:40.941Z,12.63
2022-09-01T09:45:24.885Z,12.93
2022-09-01T09:47:55.680Z,12.84
2022-09-01T09:50:27.231Z,12.86
2022-09-01T09:53:14.224Z,12.95
2022-09-01T09:56:02.195Z,12.98
2022-09-01T09:58:37.546Z,12.93
2022-09-01T10:01:17.731Z,12.87
2022-09-01T10:03:49.884Z,12.69
2022-09-01T10:06:33.835Z,12.88
2022-09-01T10:09:06.439Z,13.11
2022-09-01T10:11:41.474Z,13.17
2022-09-01T10:14:23.541Z,13.02
2022-09-01T10:17:10.851Z,12.78
2022-09-01T10:19:50.072Z,12.75
2022-09-01T10:22:19.090Z,12.86
2022-09-01T10:24:50.488Z,13.05
2022-09-01T10:27:24.827Z,12.96
2022-09-01T10:30:18.182Z,13.21
2022-09-01T10:32:55.274Z,13.63
2022-09-01T10:35:29.851Z,13.73
2022-09-01T10:38:01.307Z,13.57
2022-09-01T10:40:43.823Z,13.31
2022-09-01T10:43:38.437Z,13.15
2022-09-01T10:46:50.830Z,12.87
2022-09-01T10:50:00.169Z,12.98
2022-09-01T10:53:05.899Z,13.34
2022-09-01T10:55:44.171Z,13.45
2022-09-01T11:02:27.678Z,13.39
2022-09-01T11:05:19.214Z,13.97
2022-09-01T11:08:14.927Z,14.05
2022-09-01T11:10:56.417Z,13.89
2022-09-01T11:13:37.262Z,13.79
2022-09-01T11:19:32.681Z,14.21
2022-09-01T11:22:13.067Z,13.90
2022-09-01T11:25:15.095Z,13.54
2022-09-01T11:28:22.689Z,13.43
2022-09-01T11:30:56.667Z,13.46
2022-09-01T11:33:39.418Z,13.88
2022-09-01T11:36:14.330Z,14.22
2022-09-01T11:38:48.561Z,14.19
2022-09-01T11:41:25.700Z,14.31
2022-09-01T11:43:59.358Z,14.68
2022-09-01T11:46:32.736Z,14.99
2022-09-01T11:49:10.515Z,14.79
2022-09-01T11:51:47.233Z,15.01
2022-09-01T11:54:17.987Z,15.23
2022-09-01T11:56:47.403Z,15.03
2022-09-01T11:59:16.674Z,14.60
2022-09-01T12:01:46.059Z,14.21
2022-09-01T12:04:24.646Z,14.09
2022-09-01T12:06:58.279Z,14.02
2022-09-01T12:09:36.211Z,14.18
2022-09-01T12:12:06.684Z,14.21
2022-09-01T12:15:02.023Z,14.93
2022-09-01T12:17:25.218Z,15.24
2022-09-01T12:19:54.481Z,15.00
2022-09-01T12:22:24.652Z,14.86
2022-09-01T12:24:56.101Z,14.62
2022-09-01T12:27:25.212Z,14.35
2022-09-01T12:29:55.894Z,14.17
2022-09-01T12:32:25.474Z,14.30
2022-09-01T12:35:09.289Z,14.30
2022-09-01T12:37:40.533Z,14.39
2022-09-01T12:40:24.206Z,14.34
2022-09-01T12:42:54.749Z,14.48
2022-09-01T12:45:44.221Z,14.62
2022-09-01T12:48:29.932Z,14.35
2022-09-01T12:51:00.662Z,14.03
2022-09-01T12:53:36.573Z,13.87
2022-09-01T12:56:21.318Z,13.67
2022-09-01T12:59:04.456Z,13.73
2022-09-01T13:01:38.305Z,13.78
2022-09-01T13:04:25.606Z,14.15
2022-09-01T13:06:56.534Z,14.53
2022-09-01T13:09:25.719Z,14.60
2022-09-01T13:12:11.337Z,14.30
2022-09-01T13:14:40.564Z,14.10
2022-09-01T13:17:14.062Z,14.09
2022-09-01T13:19:43.805Z,14.27
2022-09-01T13:22:12.926Z,14.34
2022-09-01T13:24:42.081Z,14.30
2022-09-01T13:27:21.083Z,14.23
2022-09-01T13:29:50.450Z,14.06
2022-09-01T13:32:21.927Z,13.92
2022-09-01T13:34:53.249Z,13.94
2022-09-01T13:37:23.509Z,13.88
2022-09-01T13:39:52.901Z,14.15
2022-09-01T13:42:25.442Z,14.21
2022-09-01T13:44:57.810Z,14.31
2022-09-01T13:47:28.952Z,14.41
2022-09-01T13:50:08.313Z,14.58
2022-09-01T13:52:38.144Z,14.54
2022-09-01T13:55:08.497Z,14.64
2022-09-01T13:57:39.340Z,14.83
2022-09-01T14:00:11.248Z,14.80
2022-09-01T14:02:40.889Z,14.57
2022-09-01T14:05:11.277Z,14.22
2022-09-01T14:07:40.182Z,14.12
2022-09-01T14:10:10.201Z,14.04
2022-09-01T14:12:41.732Z,13.94
2022-09-01T14:15:15.917Z,13.99
2022-09-01T14:17:47.546Z,13.97
2022-09-01T14:20:19.499Z,13.93
2022-09-01T14:22:50.687Z,13.73
2022-09-01T14:25:21.607Z,13.60
2022-09-01T14:27:53.466Z,13.58
2022-09-01T14:30:29.168Z,13.68
2022-09-01T14:33:00.555Z,13.79
2022-09-01T14:35:33.301Z,13.64
2022-09-01T14:38:05.402Z,13.50
2022-09-01T14:40:35.328Z,13.37
2022-09-01T14:43:07.946Z,13.20
2022-09-01T14:45:38.221Z,13.01
2022-09-01T14:48:09.338Z,12.30
2022-09-01T14:50:43.151Z,11.81
2022-09-01T14:53:13.466Z,11.53
2022-09-01T14:55:44.129Z,11.63
2022-09-01T14:58:14.887Z,11.61
2022-09-01T15:00:45.249Z,11.63
2022-09-01T15:03:15.218Z,11.64
2022-09-01T15:05:46.253Z,11.63
2022-09-01T15:08:19.175Z,11.67
2022-09-01T15:10:48.473Z,11.73
2022-09-01T15:13:19.223Z,11.77
2022-09-01T15:15:48.629Z,11.06
2022-09-01T15:18:17.836Z,9.85
2022-09-01T15:20:47.063Z,9.32
2022-09-01T15:23:18.606Z,9.46
2022-09-01T15:25:48.698Z,9.84
2022-09-01T15:28:19.480Z,10.52
2022-09-01T15:30:48.693Z,10.72
2022-09-01T15:33:18.102Z,10.27
2022-09-01T15:35:47.916Z,9.97
2022-09-01T15:38:18.368Z,9.91
2022-09-01T15:40:55.463Z,9.77
2022-09-01T15:43:29.137Z,9.62
2022-09-01T15:45:59.374Z,9.44
2022-09-01T15:48:29.883Z,9.45
2022-09-01T15:51:28.110Z,9.60
2022-09-01T15:54:00.082Z,9.61
2022-09-01T15:56:33.684Z,9.31
2022-09-01T15:59:05.845Z,9.20
2022-09-01T16:01:37.699Z,9.31
2022-09-01T16:04:08.763Z,9.15
2022-09-01T16:06:37.848Z,9.03
2022-09-01T16:09:07.794Z,8.90
2022-09-01T16:11:37.300Z,8.96
2022-09-01T16:14:08.361Z,8.94
2022-09-01T16:16:51.984Z,9.01
2022-09-01T16:19:34.045Z,8.80
2022-09-01T16:22:13.155Z,8.72
2022-09-01T16:24:45.008Z,8.75
2022-09-01T16:27:18.144Z,8.72
2022-09-01T16:29:52.655Z,8.73
2022-09-01T16:32:23.407Z,8.72
2022-09-01T16:34:53.308Z,8.66
2022-09-01T16:37:41.048Z,8.64
2022-09-01T16:40:22.725Z,8.76
2022-09-01T16:42:58.030Z,8.75
2022-09-01T16:45:43.063Z,8.58
2022-09-01T16:48:20.636Z,8.56
2022-09-01T16:50:56.575Z,8.54
2022-09-01T16:53:45.450Z,8.48
2022-09-01T16:56:23.190Z,8.57
2022-09-01T16:59:03.259Z,8.47
2022-09-01T17:01:46.133Z,8.51
2022-09-01T17:04:29.478Z,8.40
2022-09-01T17:07:04.035Z,8.57
2022-09-01T17:09:36.862Z,8.50
2022-09-01T17:12:26.212Z,8.44
2022-09-01T17:14:59.801Z,8.49
2022-09-01T17:17:39.179Z,8.53
2022-09-01T17:20:09.046Z,8.53
2022-09-01T17:22:38.755Z,8.65
2022-09-01T17:25:10.154Z,8.69
2022-09-01T17:27:51.125Z,8.76
2022-09-01T17:30:21.251Z,8.73
2022-09-01T17:33:18.408Z,8.67
2022-09-01T17:36:04.247Z,8.58
2022-09-01T17:38:54.224Z,8.64
2022-09-01T17:41:34.851Z,8.51
2022-09-01T17:44:16.791Z,8.39
2022-09-01T17:46:54.093Z,8.37
2022-09-01T17:49:31.497Z,8.40
2022-09-01T17:52:08.769Z,8.37
2022-09-01T17:54:46.582Z,8.25
2022-09-01T17:57:25.484Z,8.18
2022-09-01T18:00:01.654Z,8.09
2022-09-01T18:03:19.229Z,8.08
2022-09-01T18:05:57.897Z,8.05
2022-09-01T18:08:36.864Z,8.14
2022-09-01T18:11:11.751Z,8.20
2022-09-01T18:13:53.188Z,8.18
2022-09-01T18:16:26.985Z,8.10
2022-09-01T18:19:01.078Z,8.11
2022-09-01T18:21:37.553Z,8.05
2022-09-01T18:24:16.231Z,8.11
2022-09-01T18:26:49.534Z,8.16
2022-09-01T18:29:20.244Z,8.17
2022-09-01T18:32:13.802Z,8.12
2022-09-01T18:34:52.988Z,8.11
2022-09-01T18:37:31.754Z,8.02
2022-09-01T18:40:12.544Z,7.98
2022-09-01T18:42:46.194Z,8.02
2022-09-01T18:45:33.175Z,8.00
2022-09-01T18:48:15.998Z,8.16
2022-09-01T18:50:53.769Z,8.15
2022-09-01T18:53:36.737Z,8.12
2022-09-01T18:56:17.439Z,7.98
2022-09-01T18:59:04.645Z,8.05
2022-09-01T19:01:38.178Z,8.01
2022-09-01T19:04:17.367Z,7.99
2022-09-01T19:07:00.151Z,7.94
2022-09-01T19:09:35.178Z,7.92
2022-09-01T19:12:16.746Z,7.84
2022-09-01T19:14:56.861Z,7.78
2022-09-01T19:17:53.465Z,7.72
2022-09-01T19:20:27.015Z,7.75
2022-09-01T19:23:03.493Z,7.76
2022-09-01T19:25:40.104Z,8.11
2022-09-01T19:28:16.717Z,8.15
2022-09-01T19:30:50.001Z,8.13
2022-09-01T19:33:25.343Z,8.11
2022-09-01T19:36:01.397Z,8.17
2022-09-01T19:38:31.919Z,8.15
2022-09-01T19:41:13.273Z,8.09
2022-09-01T19:43:43.726Z,8.03
2022-09-01T19:46:29.189Z,8.07
2022-09-01T19:49:07.530Z,8.22
2022-09-01T19:51:44.826Z,8.30
2022-09-01T19:54:22.858Z,8.38
2022-09-01T19:56:59.954Z,8.46
2022-09-01T19:59:43.047Z,8.42
2022-09-01T20:02:26.068Z,8.21
2022-09-01T20:05:01.098Z,8.11
2022-09-01T20:07:34.866Z,8.02
2022-09-01T20:10:17.886Z,7.92
2022-09-01T20:12:56.704Z,7.91
2022-09-01T20:15:31.512Z,7.85
2022-09-01T20:18:05.011Z,7.86
2022-09-01T20:20:40.310Z,7.75
2022-09-01T20:23:11.656Z,7.86
2022-09-01T20:25:47.533Z,7.89
2022-09-01T20:28:32.128Z,7.90
2022-09-01T20:31:04.679Z,7.77
2022-09-01T20:33:38.688Z,7.70
2022-09-01T20:36:13.890Z,7.80
2022-09-01T20:39:06.549Z,7.85
2022-09-01T20:41:43.156Z,7.93
2022-09-01T20:44:22.244Z,7.96
2022-09-01T20:46:53.105Z,8.04
2022-09-01T20:49:22.934Z,8.11
2022-09-01T20:51:57.799Z,8.22
2022-09-01T20:54:34.986Z,8.26
2022-09-01T20:57:18.682Z,8.28
2022-09-01T20:59:53.247Z,8.27
2022-09-01T21:02:33.634Z,8.18
2022-09-01T21:05:14.694Z,8.02
2022-09-01T21:07:52.119Z,8.00
2022-09-01T21:10:30.989Z,7.94
2022-09-01T21:13:09.587Z,8.00
2022-09-01T21:15:47.615Z,8.13
2022-09-01T21:18:33.142Z,8.02
2022-09-01T21:21:07.658Z,8.03
2022-09-01T21:23:36.673Z,7.98
2022-09-01T21:26:05.759Z,7.81
2022-09-01T21:28:35.512Z,7.75
2022-09-01T21:31:08.974Z,7.80
2022-09-01T21:33:38.082Z,7.80
2022-09-01T21:36:07.759Z,7.78
2022-09-01T21:38:36.646Z,7.79
2022-09-01T21:41:12.195Z,7.76
2022-09-01T21:43:45.142Z,7.66
2022-09-01T21:46:16.520Z,7.71
2022-09-01T21:48:45.806Z,7.64
2022-09-01T21:51:14.802Z,7.66
2022-09-01T21:53:43.776Z,7.66
2022-09-01T21:56:12.765Z,7.54
2022-09-01T21:58:41.748Z,7.53
2022-09-01T22:01:14.159Z,7.51
2022-09-01T22:03:44.823Z,7.51
2022-09-01T22:06:14.105Z,7.43
2022-09-01T22:08:43.092Z,7.37
2022-09-01T22:11:12.254Z,7.33
2022-09-01T22:13:41.178Z,7.35
2022-09-01T22:16:10.151Z,7.35
2022-09-01T22:18:39.113Z,7.36
2022-09-01T22:21:11.206Z,7.33
2022-09-01T22:23:41.107Z,7.26
2022-09-01T22:26:15.402Z,7.32
2022-09-01T22:28:44.572Z,7.34
2022-09-01T22:31:14.721Z,7.35
2022-09-01T22:33:44.331Z,7.36
2022-09-01T22:36:20.998Z,7.45
2022-09-01T22:38:50.041Z,7.58
2022-09-01T22:41:20.886Z,7.63
2022-09-01T22:43:51.072Z,7.74
2022-09-01T22:46:22.202Z,7.75
2022-09-01T22:48:51.754Z,7.72
2022-09-01T22:51:22.052Z,7.77
2022-09-01T22:53:52.153Z,7.73
2022-09-01T22:56:24.572Z,7.74
2022-09-01T22:58:55.859Z,7.77
2022-09-01T23:01:30.164Z,7.84
2022-09-01T23:04:00.739Z,7.71
2022-09-01T23:06:32.313Z,7.54
2022-09-01T23:09:03.487Z,7.36
2022-09-01T23:11:32.539Z,7.28
2022-09-01T23:14:01.741Z,7.22
2022-09-01T23:16:31.202Z,7.22
2022-09-01T23:19:00.570Z,7.21
2022-09-01T23:21:32.986Z,7.25
2022-09-01T23:24:02.504Z,7.32
2022-09-01T23:26:33.130Z,7.38
2022-09-01T23:29:02.535Z,7.27
2022-09-01T23:31:34.660Z,7.33
2022-09-01T23:34:03.963Z,7.37
2022-09-01T23:36:35.172Z,7.39
2022-09-01T23:39:04.873Z,7.41
2022-09-01T23:41:36.141Z,7.37
2022-09-01T23:44:09.685Z,7.40
2022-09-01T23:46:42.152Z,7.45
2022-09-01T23:49:12.555Z,7.50
2022-09-01T23:51:43.053Z,7.51
2022-09-01T23:54:13.616Z,7.50
2022-09-01T23:56:43.214Z,7.50
2022-09-01T23:59:12.205Z,7.47
